Time;durP1;ratioP1;P1;durP2;ratioP2;P2;SDS_P1;SDS_P2;PMS_P1;PMS_P2;Temp;Humidity;BMP_temperature;BMP_pressure;BME280_temperature;BME280_humidity;BME280_pressure;Samples;Min_cycle;Max_cycle;Signal;HPM_P1;HPM_P2
2020/12/22 00:00:23;;;;;;;29.42;13.98;;;9.00;99.90;;;;;;5027149;28;20069;-74
2020/12/22 00:02:49;;;;;;;64.75;17.25;;;9.00;99.90;;;;;;5027526;28;20104;-74
2020/12/22 00:05:17;;;;;;;75.53;17.15;;;9.00;99.90;;;;;;5023636;28;20199;-74
2020/12/22 00:07:47;;;;;;;41.03;16.63;;;9.10;99.90;;;;;;5023689;28;20478;-74
2020/12/22 00:10:13;;;;;;;58.13;16.33;;;9.10;99.90;;;;;;5027366;28;20113;-74
2020/12/22 00:12:41;;;;;;;26.30;15.38;;;9.10;99.90;;;;;;5026114;28;20599;-74
2020/12/22 00:15:12;;;;;;;40.42;16.25;;;9.10;99.90;;;;;;5026290;28;20041;-75
2020/12/22 00:17:44;;;;;;;63.90;16.55;;;9.10;99.90;;;;;;5057001;28;20415;-74
2020/12/22 00:20:13;;;;;;;44.47;16.73;;;9.20;99.90;;;;;;5057470;28;20017;-74
2020/12/22 00:22:40;;;;;;;61.10;17.13;;;9.20;99.90;;;;;;5025865;28;20030;-74
2020/12/22 00:25:06;;;;;;;34.97;15.13;;;9.20;99.90;;;;;;5024409;28;20078;-75
2020/12/22 00:27:34;;;;;;;36.60;15.90;;;9.20;99.90;;;;;;5023484;28;20033;-74
2020/12/22 00:30:01;;;;;;;50.47;17.52;;;9.20;99.90;;;;;;5025828;28;20534;-74
2020/12/22 00:32:27;;;;;;;104.75;19.67;;;9.20;99.90;;;;;;5025860;28;20104;-75
2020/12/22 00:34:55;;;;;;;231.40;23.50;;;9.20;99.90;;;;;;5039358;28;20120;-74
2020/12/22 00:37:23;;;;;;;129.68;20.38;;;9.20;99.90;;;;;;5054243;28;20064;-75
2020/12/22 00:39:51;;;;;;;138.18;20.42;;;9.20;99.90;;;;;;5024944;28;20054;-75
2020/12/22 00:42:19;;;;;;;176.10;20.48;;;9.20;99.90;;;;;;5020927;28;20440;-75
2020/12/22 00:44:44;;;;;;;356.92;25.15;;;9.20;99.90;;;;;;5023284;28;20483;-75
2020/12/22 00:47:11;;;;;;;65.32;17.67;;;9.20;99.90;;;;;;5025914;28;20044;-74
2020/12/22 00:49:37;;;;;;;188.85;21.23;;;9.20;99.90;;;;;;5027386;28;20025;-74
2020/12/22 00:52:02;;;;;;;491.25;27.65;;;9.20;99.90;;;;;;5043427;28;20033;-74
2020/12/22 00:54:28;;;;;;;322.98;26.75;;;9.20;99.90;;;;;;5024204;28;20029;-75
2020/12/22 00:56:58;;;;;;;143.63;20.00;;;9.20;99.90;;;;;;5028410;28;20468;-75
2020/12/22 00:59:24;;;;;;;227.48;22.60;;;9.20;99.90;;;;;;5025887;28;20053;-74
2020/12/22 01:01:52;;;;;;;102.25;16.65;;;9.20;99.90;;;;;;5024414;28;20730;-75
2020/12/22 01:04:17;;;;;;;435.50;26.40;;;9.20;99.90;;;;;;5024512;28;20115;-74
2020/12/22 01:06:43;;;;;;;83.18;17.25;;;9.20;99.90;;;;;;5022075;28;20200;-74
2020/12/22 01:09:12;;;;;;;302.77;24.48;;;9.30;99.90;;;;;;5023143;28;20036;-75
2020/12/22 01:11:43;;;;;;;223.65;20.40;;;9.30;99.90;;;;;;5023734;28;20112;-74
2020/12/22 01:14:10;;;;;;;99.80;17.52;;;9.30;99.90;;;;;;5040186;28;20032;-74
2020/12/22 01:16:38;;;;;;;133.18;17.88;;;9.30;99.90;;;;;;5022201;28;20068;-74
2020/12/22 01:19:08;;;;;;;92.75;16.65;;;9.30;99.90;;;;;;5024197;28;20033;-74
2020/12/22 01:21:37;;;;;;;339.48;24.45;;;9.40;99.90;;;;;;5022540;28;20112;-75
2020/12/22 01:24:04;;;;;;;584.80;32.58;;;9.40;99.90;;;;;;5022555;28;20041;-75
2020/12/22 01:26:30;;;;;;;382.70;26.60;;;9.40;99.90;;;;;;5020425;28;20137;-75
2020/12/22 01:28:58;;;;;;;265.77;21.65;;;9.40;99.90;;;;;;5041027;28;20458;-75
2020/12/22 01:31:30;;;;;;;322.30;21.75;;;9.40;99.90;;;;;;5056634;28;20040;-75
2020/12/22 01:33:56;;;;;;;;;;;9.40;99.90;;;;;;5023549;28;20036;-75
2020/12/22 01:36:24;;;;;;;439.50;24.75;;;9.40;99.90;;;;;;5022550;28;20292;-75
2020/12/22 01:38:50;;;;;;;503.70;28.55;;;9.40;99.90;;;;;;5054917;28;20478;-75
2020/12/22 01:41:16;;;;;;;428.35;26.55;;;9.40;99.90;;;;;;5039178;28;20044;-75
2020/12/22 01:43:44;;;;;;;203.95;19.05;;;9.40;99.90;;;;;;5055678;28;20022;-74
2020/12/22 01:46:14;;;;;;;284.67;20.25;;;9.40;99.90;;;;;;5039842;28;20022;-74
2020/12/22 01:48:42;;;;;;;371.08;23.40;;;9.40;99.90;;;;;;5021144;28;20045;-75
2020/12/22 01:51:08;;;;;;;254.43;20.38;;;9.40;99.90;;;;;;5055702;28;20058;-74
2020/12/22 01:53:33;;;;;;;45.72;11.88;;;9.50;99.90;;;;;;5038390;28;20057;-74
2020/12/22 01:56:02;;;;;;;187.75;17.80;;;9.50;99.90;;;;;;5023857;28;20056;-74
2020/12/22 01:58:29;;;;;;;190.45;18.92;;;9.60;99.90;;;;;;5023490;28;20030;-74
2020/12/22 02:01:02;;;;;;;270.42;20.42;;;9.60;99.90;;;;;;5024530;28;20672;-74
2020/12/22 02:03:31;;;;;;;168.57;15.93;;;9.60;99.90;;;;;;5024442;28;20104;-74
2020/12/22 02:06:00;;;;;;;251.43;18.67;;;9.60;99.90;;;;;;5021016;28;20053;-74
2020/12/22 02:08:27;;;;;;;68.97;12.80;;;9.60;99.90;;;;;;4990433;28;20098;-74
2020/12/22 02:10:53;;;;;;;105.57;13.85;;;9.70;99.90;;;;;;5023249;28;20056;-74
2020/12/22 02:13:21;;;;;;;70.70;12.15;;;9.70;99.90;;;;;;5024300;28;20029;-75
2020/12/22 02:15:47;;;;;;;22.95;11.15;;;9.70;99.90;;;;;;5055891;28;20108;-74
2020/12/22 02:18:12;;;;;;;29.80;12.00;;;9.70;99.90;;;;;;5024176;28;20629;-74
2020/12/22 02:20:39;;;;;;;35.42;12.30;;;9.70;99.90;;;;;;5023937;28;20068;-74
2020/12/22 02:23:05;;;;;;;14.38;10.20;;;9.70;99.90;;;;;;5020734;28;20104;-74
2020/12/22 02:25:33;;;;;;;20.60;10.63;;;9.70;99.90;;;;;;5024140;28;20113;-74
2020/12/22 02:28:00;;;;;;;14.35;10.02;;;9.70;99.90;;;;;;5055006;28;20113;-74
2020/12/22 02:30:26;;;;;;;15.35;10.35;;;9.70;99.90;;;;;;5021501;28;20033;-74
2020/12/22 02:32:56;;;;;;;22.50;10.95;;;9.70;99.90;;;;;;5039158;28;20033;-74
2020/12/22 02:35:22;;;;;;;14.05;9.70;;;9.70;99.90;;;;;;5024139;28;20037;-74
2020/12/22 02:37:48;;;;;;;12.77;9.73;;;9.80;99.90;;;;;;5023050;28;20029;-74
2020/12/22 02:40:16;;;;;;;16.48;10.63;;;9.80;99.90;;;;;;5024115;28;20025;-74
2020/12/22 02:42:41;;;;;;;11.30;8.40;;;9.80;99.90;;;;;;5022070;28;20060;-74
2020/12/22 02:45:09;;;;;;;13.43;9.02;;;9.80;99.90;;;;;;5039407;28;20088;-74
2020/12/22 02:47:35;;;;;;;11.35;8.13;;;9.80;99.90;;;;;;5022988;28;20033;-74
2020/12/22 02:50:03;;;;;;;12.20;7.60;;;9.90;99.90;;;;;;5022534;28;20062;-74
2020/12/22 02:52:28;;;;;;;14.05;9.13;;;9.90;99.90;;;;;;5052588;28;20032;-74
2020/12/22 02:54:54;;;;;;;10.50;6.75;;;9.90;99.90;;;;;;5021333;28;20022;-74
2020/12/22 02:57:19;;;;;;;9.20;6.68;;;9.90;99.90;;;;;;5021838;28;20037;-74
2020/12/22 02:59:45;;;;;;;8.85;6.47;;;9.90;99.90;;;;;;5021777;28;20057;-74
2020/12/22 03:02:15;;;;;;;8.95;6.75;;;9.90;99.90;;;;;;5022358;28;20065;-74
2020/12/22 03:04:41;;;;;;;8.38;6.10;;;10.00;99.90;;;;;;5023791;28;20036;-74
2020/12/22 03:07:07;;;;;;;9.82;5.93;;;10.00;99.90;;;;;;5025511;28;20049;-75
2020/12/22 03:09:35;;;;;;;8.05;5.45;;;10.00;99.90;;;;;;5026471;28;20113;-74
2020/12/22 03:12:05;;;;;;;11.73;6.68;;;10.00;99.90;;;;;;5026618;28;20104;-74
2020/12/22 03:14:33;;;;;;;8.60;6.30;;;10.00;99.90;;;;;;5025774;28;20037;-74
2020/12/22 03:16:59;;;;;;;10.30;6.78;;;10.10;99.90;;;;;;5027805;28;20087;-74
2020/12/22 03:19:24;;;;;;;10.65;7.22;;;10.10;99.90;;;;;;5026530;28;20030;-75
2020/12/22 03:21:52;;;;;;;9.27;7.18;;;10.10;99.90;;;;;;5025460;28;20026;-75
2020/12/22 03:24:20;;;;;;;10.13;7.13;;;10.10;99.90;;;;;;5026791;28;20021;-74
2020/12/22 03:26:46;;;;;;;11.80;7.60;;;10.10;99.90;;;;;;5027426;28;20482;-74
2020/12/22 03:29:14;;;;;;;10.45;6.53;;;10.20;99.90;;;;;;5026465;28;20064;-74
2020/12/22 03:31:40;;;;;;;10.63;6.85;;;10.20;99.90;;;;;;5025972;28;20093;-74
2020/12/22 03:34:10;;;;;;;10.23;6.97;;;10.30;99.90;;;;;;5024128;28;20116;-74
2020/12/22 03:36:36;;;;;;;11.13;6.72;;;10.40;99.90;;;;;;5057014;28;20076;-74
2020/12/22 03:39:01;;;;;;;8.32;5.78;;;10.40;99.90;;;;;;5024399;28;20065;-74
2020/12/22 03:41:27;;;;;;;9.90;7.25;;;10.40;99.90;;;;;;5037961;28;20036;-74
2020/12/22 03:43:53;;;;;;;11.57;7.38;;;10.40;99.90;;;;;;5025910;28;20844;-74
2020/12/22 03:46:19;;;;;;;11.32;7.80;;;10.50;99.90;;;;;;5023546;28;20451;-74
2020/12/22 03:48:47;;;;;;;13.07;7.95;;;10.50;99.90;;;;;;5024514;28;20030;-74
2020/12/22 03:51:15;;;;;;;11.63;7.80;;;10.50;99.90;;;;;;5025961;28;20036;-74
2020/12/22 03:53:40;;;;;;;8.73;6.95;;;10.60;99.90;;;;;;5025163;28;20032;-74
2020/12/22 03:56:06;;;;;;;10.23;7.18;;;10.60;99.90;;;;;;5024243;28;20037;-74
2020/12/22 03:58:32;;;;;;;8.95;6.53;;;10.60;99.90;;;;;;5038754;28;20040;-75
2020/12/22 04:01:01;;;;;;;8.57;5.70;;;10.60;99.90;;;;;;5025673;28;20025;-74
2020/12/22 04:03:27;;;;;;;6.72;4.68;;;10.60;99.90;;;;;;5024737;28;20037;-74
2020/12/22 04:05:57;;;;;;;6.82;5.15;;;10.70;99.90;;;;;;5023588;28;20406;-74
2020/12/22 04:08:25;;;;;;;6.03;4.03;;;10.70;99.90;;;;;;5024593;28;20025;-74
2020/12/22 04:10:51;;;;;;;7.00;4.03;;;10.70;99.90;;;;;;5036339;28;20108;-74
2020/12/22 04:13:19;;;;;;;6.38;4.07;;;10.70;99.90;;;;;;5024477;28;20261;-74
2020/12/22 04:15:47;;;;;;;5.47;3.65;;;10.70;99.90;;;;;;5024623;28;20040;-75
2020/12/22 04:18:15;;;;;;;4.90;3.17;;;10.70;99.90;;;;;;5024600;28;20040;-74
2020/12/22 04:20:41;;;;;;;5.18;3.20;;;10.80;99.90;;;;;;5025223;28;20075;-75
2020/12/22 04:23:06;;;;;;;4.75;2.80;;;10.80;99.90;;;;;;5026981;28;20037;-75
2020/12/22 04:25:36;;;;;;;4.57;2.75;;;10.80;99.90;;;;;;5056693;28;20475;-75
2020/12/22 04:28:04;;;;;;;3.60;2.30;;;10.80;99.90;;;;;;5023693;28;20029;-74
2020/12/22 04:30:30;;;;;;;5.00;2.30;;;10.80;99.90;;;;;;5023708;28;20044;-74
2020/12/22 04:33:01;;;;;;;3.80;2.42;;;10.90;99.90;;;;;;5055964;28;20034;-75
2020/12/22 04:35:26;;;;;;;4.15;2.13;;;10.90;99.90;;;;;;5025978;28;20116;-74
2020/12/22 04:37:52;;;;;;;6.32;2.40;;;10.90;99.90;;;;;;5040624;28;20108;-74
2020/12/22 04:40:19;;;;;;;5.90;2.20;;;10.90;99.90;;;;;;5036505;28;20030;-74
2020/12/22 04:42:45;;;;;;;5.32;1.90;;;10.90;99.90;;;;;;5023764;28;20037;-74
2020/12/22 04:45:11;;;;;;;5.35;1.90;;;11.00;99.90;;;;;;5025930;28;20026;-74
2020/12/22 04:47:41;;;;;;;4.00;2.33;;;11.00;99.90;;;;;;5024538;28;20037;-74
2020/12/22 04:50:06;;;;;;;4.07;2.17;;;10.90;99.90;;;;;;5023885;28;20038;-74
2020/12/22 04:52:32;;;;;;;4.57;2.40;;;11.00;99.90;;;;;;5057170;28;20032;-75
2020/12/22 04:55:02;;;;;;;4.90;3.10;;;11.00;99.90;;;;;;5024380;28;20607;-75
2020/12/22 04:57:31;;;;;;;4.80;2.80;;;11.00;99.90;;;;;;5024337;28;20036;-74
2020/12/22 04:59:57;;;;;;;6.75;3.88;;;11.00;99.90;;;;;;5055952;28;20548;-75
2020/12/22 05:02:26;;;;;;;5.10;3.58;;;11.00;99.90;;;;;;5056497;28;20033;-75
2020/12/22 05:04:52;;;;;;;6.18;3.70;;;11.00;99.90;;;;;;5024254;28;20030;-75
2020/12/22 05:07:20;;;;;;;7.50;4.40;;;11.10;99.90;;;;;;5025571;28;20535;-75
2020/12/22 05:09:46;;;;;;;7.00;4.30;;;11.10;99.90;;;;;;5024149;28;20040;-75
2020/12/22 05:12:12;;;;;;;5.07;3.60;;;11.10;99.90;;;;;;5039063;28;20021;-74
2020/12/22 05:14:39;;;;;;;6.22;3.80;;;11.20;99.90;;;;;;5056153;28;20446;-75
2020/12/22 05:17:13;;;;;;;7.57;3.95;;;11.20;99.90;;;;;;5023635;28;20208;-75
2020/12/22 05:19:41;;;;;;;5.32;3.38;;;11.20;99.90;;;;;;5036895;28;20026;-74
2020/12/22 05:22:07;;;;;;;6.47;3.50;;;11.20;99.90;;;;;;5022339;28;20021;-75
2020/12/22 05:24:38;;;;;;;6.28;3.50;;;11.20;99.90;;;;;;5008246;28;20433;-75
2020/12/22 05:27:04;;;;;;;6.28;3.28;;;11.30;99.90;;;;;;5022999;28;20044;-75
2020/12/22 05:29:32;;;;;;;4.85;3.10;;;11.30;99.90;;;;;;5023563;28;20030;-75
2020/12/22 05:32:02;;;;;;;5.43;3.20;;;11.30;99.90;;;;;;5039082;28;20086;-75
2020/12/22 05:34:28;;;;;;;6.30;3.22;;;11.30;99.90;;;;;;5023941;28;20018;-75
2020/12/22 05:37:00;;;;;;;5.90;3.58;;;11.30;99.90;;;;;;5037719;28;20033;-75
2020/12/22 05:39:30;;;;;;;5.80;3.88;;;11.40;99.90;;;;;;5053676;28;20037;-76
2020/12/22 05:41:58;;;;;;;5.38;3.67;;;11.30;99.90;;;;;;5024082;28;20045;-75
2020/12/22 05:44:27;;;;;;;5.18;3.38;;;11.30;99.90;;;;;;5053984;28;20039;-75
2020/12/22 05:46:55;;;;;;;4.80;3.50;;;11.30;99.90;;;;;;5023713;28;20041;-75
2020/12/22 05:49:20;;;;;;;6.82;3.92;;;11.30;99.90;;;;;;5056505;28;20366;-75
2020/12/22 05:51:47;;;;;;;5.03;3.45;;;11.40;99.90;;;;;;5022417;28;20026;-76
2020/12/22 05:54:17;;;;;;;6.45;3.92;;;11.30;99.90;;;;;;5037246;28;20062;-75
2020/12/22 05:56:42;;;;;;;5.63;3.90;;;11.40;99.90;;;;;;5054747;28;20459;-75
2020/12/22 05:59:22;;;;;;;6.43;3.72;;;11.40;99.90;;;;;;5039314;28;20052;-75
2020/12/22 06:01:50;;;;;;;5.00;3.63;;;11.40;99.90;;;;;;5053723;28;20044;-75
2020/12/22 06:04:17;;;;;;;6.00;4.30;;;11.40;99.90;;;;;;5024303;28;20097;-75
2020/12/22 06:06:47;;;;;;;5.38;3.95;;;11.40;99.90;;;;;;5022687;28;20045;-75
2020/12/22 06:09:13;;;;;;;5.78;4.30;;;11.50;99.90;;;;;;5023842;28;20021;-75
2020/12/22 06:11:41;;;;;;;7.32;4.03;;;11.50;99.90;;;;;;5055942;28;20025;-75
2020/12/22 06:14:07;;;;;;;6.70;4.18;;;11.60;99.90;;;;;;5022114;28;20021;-75
2020/12/22 06:16:33;;;;;;;6.20;4.47;;;11.60;99.90;;;;;;5023305;28;20056;-75
2020/12/22 06:19:00;;;;;;;6.43;4.95;;;11.60;99.90;;;;;;5024156;28;20029;-75
2020/12/22 06:21:28;;;;;;;6.63;5.10;;;11.60;99.90;;;;;;5022725;28;20108;-75
2020/12/22 06:23:56;;;;;;;6.03;4.60;;;11.60;99.90;;;;;;5020484;28;20025;-75
2020/12/22 06:26:24;;;;;;;5.97;4.57;;;11.70;99.90;;;;;;5022489;28;20057;-75
2020/12/22 06:28:50;;;;;;;6.57;4.57;;;11.70;99.90;;;;;;5022740;28;20026;-75
2020/12/22 06:31:25;;;;;;;7.07;4.78;;;11.70;99.90;;;;;;5036450;28;20362;-75
2020/12/22 06:33:51;;;;;;;5.88;4.30;;;11.60;99.90;;;;;;5023287;28;20040;-75
2020/12/22 06:36:17;;;;;;;4.88;3.42;;;11.60;99.90;;;;;;5036606;28;20041;-75
2020/12/22 06:39:02;;;;;;;6.70;4.15;;;11.70;99.90;;;;;;5023188;28;20167;-75
2020/12/22 06:41:34;;;;;;;6.05;4.25;;;11.70;99.90;;;;;;5043015;28;20030;-75
2020/12/22 06:44:14;;;;;;;6.43;3.88;;;11.70;99.90;;;;;;5025479;28;20034;-75
2020/12/22 06:46:51;;;;;;;5.57;4.15;;;11.70;99.90;;;;;;5037856;28;20033;-75
2020/12/22 06:49:19;;;;;;;5.63;3.72;;;11.80;99.90;;;;;;5025544;28;20025;-75
2020/12/22 06:51:44;;;;;;;5.82;3.78;;;11.80;99.90;;;;;;5027218;28;20049;-75
2020/12/22 06:54:13;;;;;;;5.68;3.97;;;11.80;99.90;;;;;;5028470;28;20037;-74
2020/12/22 06:56:42;;;;;;;4.40;3.13;;;11.80;99.90;;;;;;5027540;28;20033;-74
2020/12/22 06:59:31;;;;;;;11.52;3.55;;;11.80;99.90;;;;;;5026010;28;20033;-74
2020/12/22 07:01:59;;;;;;;4.65;3.03;;;11.80;99.90;;;;;;5024596;28;20356;-74
2020/12/22 07:04:27;;;;;;;4.55;2.90;;;11.80;99.90;;;;;;5059103;28;20033;-75
2020/12/22 07:06:59;;;;;;;5.13;3.08;;;11.90;99.90;;;;;;5026349;28;20479;-74
2020/12/22 07:09:25;;;;;;;;;;;11.90;99.90;;;;;;5025789;28;20030;-75
2020/12/22 07:11:56;;;;;;;4.50;3.03;;;11.90;99.90;;;;;;5025376;28;20000;-74
2020/12/22 07:14:25;;;;;;;5.25;3.50;;;11.90;99.90;;;;;;5058080;28;20068;-75
2020/12/22 07:16:55;;;;;;;5.57;3.33;;;11.80;99.90;;;;;;5040081;28;20037;-74
2020/12/22 07:19:28;;;;;;;4.70;3.47;;;11.80;99.90;;;;;;5023739;28;20029;-75
2020/12/22 07:21:59;;;;;;;5.85;3.40;;;11.80;99.90;;;;;;5025044;28;20473;-75
2020/12/22 07:24:28;;;;;;;7.47;4.18;;;11.80;99.90;;;;;;5058299;28;20099;-75
2020/12/22 07:26:56;;;;;;;4.70;3.00;;;11.80;99.90;;;;;;5025789;28;20111;-76
2020/12/22 07:29:22;;;;;;;5.22;3.00;;;11.80;99.90;;;;;;5026265;28;20034;-76
2020/12/22 07:31:48;;;;;;;4.70;3.10;;;11.80;99.90;;;;;;5038766;28;20047;-75
2020/12/22 07:34:14;;;;;;;5.13;3.40;;;11.80;99.90;;;;;;5057651;28;20116;-76
2020/12/22 07:36:40;;;;;;;5.80;3.10;;;11.80;99.90;;;;;;5059210;28;20029;-76
2020/12/22 07:39:23;;;;;;;5.38;3.15;;;11.80;99.90;;;;;;5026245;28;20063;-76
2020/12/22 07:41:51;;;;;;;4.60;3.10;;;11.90;99.90;;;;;;5027419;28;20033;-76
2020/12/22 07:44:18;;;;;;;5.53;3.30;;;11.90;99.90;;;;;;5041363;28;20030;-77
2020/12/22 07:46:45;;;;;;;4.50;2.95;;;11.90;99.90;;;;;;5028582;28;20048;-75
2020/12/22 07:49:12;;;;;;;6.25;3.13;;;11.90;99.90;;;;;;5028598;28;20028;-75
2020/12/22 07:51:52;;;;;;;5.65;3.35;;;11.90;99.90;;;;;;5026466;28;20025;-76
2020/12/22 07:54:17;;;;;;;4.60;2.83;;;11.90;99.90;;;;;;5028123;28;20022;-76
2020/12/22 07:56:44;;;;;;;4.53;3.08;;;11.90;99.90;;;;;;5027006;28;20044;-78
2020/12/22 07:59:16;;;;;;;6.60;2.72;;;12.00;99.90;;;;;;5060791;28;20025;-75
2020/12/22 08:01:45;;;;;;;5.28;2.85;;;11.90;99.90;;;;;;5028499;28;20036;-76
2020/12/22 08:04:21;;;;;;;5.10;2.75;;;11.90;99.90;;;;;;5026515;28;20025;-77
2020/12/22 08:06:56;;;;;;;7.07;2.58;;;12.00;99.90;;;;;;5025954;28;20060;-75
2020/12/22 08:09:34;;;;;;;4.93;2.85;;;12.00;99.90;;;;;;5024328;28;20021;-78
2020/12/22 08:12:04;;;;;;;4.40;2.30;;;11.90;99.90;;;;;;5025205;28;20032;-76
2020/12/22 08:14:33;;;;;;;4.22;2.72;;;12.00;99.90;;;;;;5057036;28;20013;-76
2020/12/22 08:17:05;;;;;;;4.35;2.58;;;11.90;99.90;;;;;;5026353;28;20025;-76
2020/12/22 08:19:34;;;;;;;4.35;2.90;;;12.00;99.90;;;;;;5059870;28;20114;-76
2020/12/22 08:22:02;;;;;;;5.28;3.00;;;11.90;99.90;;;;;;5027265;28;20022;-77
2020/12/22 08:24:28;;;;;;;4.13;2.70;;;12.00;99.90;;;;;;5040222;28;20026;-76
2020/12/22 08:26:56;;;;;;;5.20;3.28;;;11.90;99.90;;;;;;5010169;28;20025;-76
2020/12/22 08:29:22;;;;;;;4.50;2.70;;;12.00;99.90;;;;;;5027407;28;20102;-77
2020/12/22 08:31:53;;;;;;;5.20;3.33;;;12.00;99.90;;;;;;5026495;28;20451;-77
2020/12/22 08:34:18;;;;;;;6.30;3.00;;;12.00;99.90;;;;;;5044110;28;20052;-76
2020/12/22 08:36:47;;;;;;;6.00;3.63;;;12.00;99.90;;;;;;5026676;28;20515;-76
2020/12/22 08:39:20;;;;;;;4.40;3.03;;;12.10;99.90;;;;;;5057627;28;20037;-75
2020/12/22 08:41:50;;;;;;;5.78;3.88;;;12.10;99.90;;;;;;5025091;28;20025;-76
2020/12/22 08:44:18;;;;;;;5.22;3.28;;;12.10;99.90;;;;;;5058815;28;20028;-75
2020/12/22 08:46:44;;;;;;;6.03;3.45;;;12.10;99.90;;;;;;5027134;28;20029;-78
2020/12/22 08:49:22;;;;;;;7.10;4.18;;;12.10;99.90;;;;;;5059532;28;20049;-79
2020/12/22 08:51:48;;;;;;;6.50;4.43;;;12.10;99.90;;;;;;5056842;28;20113;-76
2020/12/22 08:54:14;;;;;;;5.50;4.00;;;12.10;99.90;;;;;;5027019;28;20018;-76
2020/12/22 08:56:41;;;;;;;5.85;4.43;;;12.10;99.90;;;;;;5058798;28;20522;-76
2020/12/22 08:59:08;;;;;;;6.55;3.97;;;12.20;99.90;;;;;;5027043;28;20025;-77
2020/12/22 09:01:46;;;;;;;8.15;4.32;;;12.10;99.90;;;;;;5025276;28;20120;-79
2020/12/22 09:04:13;;;;;;;5.22;3.85;;;12.20;99.90;;;;;;5027229;28;20037;-76
2020/12/22 09:06:45;;;;;;;5.88;4.20;;;12.10;99.90;;;;;;5012275;28;20128;-75
2020/12/22 09:09:16;;;;;;;5.05;3.80;;;12.20;99.90;;;;;;5028181;28;20451;-76
2020/12/22 09:11:44;;;;;;;5.90;4.03;;;12.20;99.90;;;;;;5058334;28;20034;-76
2020/12/22 09:14:15;;;;;;;6.85;5.20;;;12.30;99.90;;;;;;5026955;28;20447;-75
2020/12/22 09:16:56;;;;;;;7.15;4.95;;;12.20;99.90;;;;;;5040934;28;20025;-76
2020/12/22 09:19:46;;;;;;;6.50;4.95;;;12.30;99.90;;;;;;5039961;28;20033;-75
2020/12/22 09:22:27;;;;;;;6.78;4.70;;;12.20;99.90;;;;;;5014056;28;20322;-76
2020/12/22 09:24:59;;;;;;;6.13;4.43;;;12.30;99.90;;;;;;5025152;28;20102;-75
2020/12/22 09:27:38;;;;;;;6.75;5.22;;;12.30;99.90;;;;;;5041491;28;20052;-76
2020/12/22 09:30:07;;;;;;;6.60;4.85;;;12.30;99.90;;;;;;5026183;28;20052;-76
2020/12/22 09:32:33;;;;;;;6.20;4.47;;;12.20;99.90;;;;;;5057832;28;20599;-76
2020/12/22 09:35:01;;;;;;;6.85;4.80;;;12.30;99.90;;;;;;5041336;28;20025;-75
2020/12/22 09:37:34;;;;;;;5.47;4.28;;;12.20;99.90;;;;;;5056047;28;20029;-75
2020/12/22 09:40:00;;;;;;;6.07;4.30;;;12.30;99.90;;;;;;5023691;28;20120;-77
2020/12/22 09:42:28;;;;;;;5.82;3.80;;;12.30;99.90;;;;;;5040463;28;20125;-75
2020/12/22 09:44:54;;;;;;;6.57;3.53;;;12.30;99.90;;;;;;5024340;28;20040;-74
2020/12/22 09:47:19;;;;;;;5.82;3.70;;;12.40;99.90;;;;;;5039519;28;20030;-77
2020/12/22 09:49:45;;;;;;;4.22;2.72;;;12.40;99.90;;;;;;5057490;28;20029;-76
2020/12/22 09:52:18;;;;;;;5.13;3.40;;;12.40;99.90;;;;;;5026434;28;20410;-76
2020/12/22 09:54:46;;;;;;;4.47;3.00;;;12.40;99.90;;;;;;5023279;28;20087;-75
2020/12/22 09:57:13;;;;;;;5.13;3.35;;;12.50;99.90;;;;;;5039426;28;20380;-75
2020/12/22 09:59:39;;;;;;;5.50;3.22;;;12.40;99.90;;;;;;5024678;28;20029;-75
2020/12/22 10:02:09;;;;;;;5.53;3.30;;;12.40;99.90;;;;;;5025493;28;20033;-75
2020/12/22 10:04:37;;;;;;;5.28;3.92;;;12.40;99.90;;;;;;5025276;28;20406;-75
2020/12/22 10:07:03;;;;;;;6.13;3.10;;;12.40;99.90;;;;;;5024078;28;20052;-74
2020/12/22 10:09:31;;;;;;;4.05;2.72;;;12.50;99.90;;;;;;5025418;28;20022;-74
2020/12/22 10:11:59;;;;;;;4.13;2.83;;;12.50;99.90;;;;;;5025377;28;20099;-75
2020/12/22 10:14:25;;;;;;;4.72;2.90;;;12.50;99.90;;;;;;5024283;28;21964;-76
2020/12/22 10:16:51;;;;;;;4.25;2.60;;;12.50;99.90;;;;;;5028724;28;20026;-75
2020/12/22 10:19:19;;;;;;;3.45;2.28;;;12.50;99.90;;;;;;5026089;28;20038;-75
2020/12/22 10:21:46;;;;;;;4.80;2.40;;;12.60;99.90;;;;;;5027452;28;20041;-75
2020/12/22 10:24:14;;;;;;;4.70;2.03;;;12.60;99.90;;;;;;5028935;28;20029;-75
2020/12/22 10:26:41;;;;;;;4.18;2.33;;;12.70;99.90;;;;;;5058354;28;20528;-75
2020/12/22 10:29:07;;;;;;;3.17;2.20;;;12.70;99.90;;;;;;5029451;28;20037;-75
2020/12/22 10:31:35;;;;;;;3.65;2.42;;;12.70;99.90;;;;;;5026292;28;20028;-75
2020/12/22 10:34:03;;;;;;;3.72;2.00;;;12.80;99.90;;;;;;5028683;28;20453;-75
2020/12/22 10:36:36;;;;;;;2.63;1.77;;;12.80;99.90;;;;;;5028492;28;20090;-75
2020/12/22 10:39:03;;;;;;;2.60;2.00;;;12.80;99.90;;;;;;5026598;28;20036;-75
2020/12/22 10:41:33;;;;;;;3.30;2.10;;;12.80;99.90;;;;;;5041074;28;20033;-76
2020/12/22 10:44:01;;;;;;;4.50;2.30;;;12.80;99.90;;;;;;5043336;28;20486;-76
2020/12/22 10:46:27;;;;;;;4.15;2.10;;;12.80;99.90;;;;;;5041113;28;20554;-75
2020/12/22 10:48:53;;;;;;;3.88;2.00;;;12.80;99.90;;;;;;5026566;28;20044;-75
2020/12/22 10:51:21;;;;;;;4.05;2.20;;;12.80;99.90;;;;;;5023544;28;20036;-75
2020/12/22 10:53:49;;;;;;;3.88;2.10;;;12.80;99.90;;;;;;5026453;28;20042;-72
2020/12/22 10:56:16;;;;;;;3.67;1.95;;;12.80;99.90;;;;;;5030060;28;20041;-72
2020/12/22 10:58:44;;;;;;;3.75;1.83;;;12.90;99.90;;;;;;5012699;28;20036;-72
2020/12/22 11:01:14;;;;;;;4.32;2.42;;;12.90;99.90;;;;;;5024944;28;20025;-71
2020/12/22 11:03:41;;;;;;;4.45;2.20;;;12.80;99.90;;;;;;5041586;28;20025;-72
2020/12/22 11:06:19;;;;;;;4.28;2.10;;;12.90;99.90;;;;;;5028198;28;20040;-72
2020/12/22 11:08:45;;;;;;;4.30;2.10;;;12.90;99.90;;;;;;5027703;28;20033;-72
2020/12/22 11:11:11;;;;;;;2.95;1.80;;;12.90;99.90;;;;;;5057804;28;20168;-72
2020/12/22 11:13:41;;;;;;;5.85;2.20;;;13.00;99.90;;;;;;5058840;28;20096;-72
2020/12/22 11:16:10;;;;;;;3.13;2.08;;;13.00;99.90;;;;;;5026865;28;20333;-72
2020/12/22 11:18:39;;;;;;;2.85;1.77;;;13.00;99.90;;;;;;5028098;28;20064;-72
2020/12/22 11:21:14;;;;;;;2.90;1.75;;;13.00;99.90;;;;;;5027198;28;20029;-73
2020/12/22 11:23:40;;;;;;;2.67;1.90;;;13.10;99.90;;;;;;5042575;28;20529;-72
2020/12/22 11:26:10;;;;;;;2.30;1.90;;;13.10;99.90;;;;;;5058938;28;20029;-73
2020/12/22 11:28:36;;;;;;;2.97;1.85;;;13.10;99.90;;;;;;5026695;28;20037;-73
2020/12/22 11:31:02;;;;;;;3.42;1.85;;;13.10;99.90;;;;;;5058957;28;20102;-72
2020/12/22 11:33:29;;;;;;;2.65;1.90;;;13.10;99.90;;;;;;5025546;28;20029;-72
2020/12/22 11:35:56;;;;;;;3.10;1.80;;;13.10;99.90;;;;;;5027480;28;20458;-72
2020/12/22 11:38:21;;;;;;;3.63;1.88;;;13.20;99.90;;;;;;5025428;28;20093;-72
2020/12/22 11:40:47;;;;;;;2.72;1.70;;;13.20;99.90;;;;;;5042599;28;20030;-74
2020/12/22 11:43:13;;;;;;;2.50;1.70;;;13.30;99.90;;;;;;5026497;28;20025;-73
2020/12/22 11:45:38;;;;;;;3.85;1.85;;;13.30;99.90;;;;;;5028248;28;20029;-73
2020/12/22 11:48:06;;;;;;;2.55;1.70;;;13.30;99.90;;;;;;5060734;28;20085;-73
2020/12/22 11:50:32;;;;;;;3.28;1.73;;;13.30;99.90;;;;;;5026688;28;20025;-73
2020/12/22 11:52:57;;;;;;;3.42;1.60;;;13.30;99.90;;;;;;5025587;28;20029;-72
2020/12/22 11:55:25;;;;;;;2.45;1.60;;;13.30;99.90;;;;;;5027161;28;20030;-72
2020/12/22 11:57:51;;;;;;;2.92;1.80;;;13.40;99.90;;;;;;5028415;28;20037;-72
2020/12/22 12:00:17;;;;;;;3.83;1.60;;;13.40;99.90;;;;;;5058845;28;20052;-73
2020/12/22 12:02:42;;;;;;;2.92;1.67;;;13.50;99.90;;;;;;5058072;28;20052;-72
2020/12/22 12:05:08;;;;;;;3.63;1.52;;;13.50;99.90;;;;;;5024005;28;20026;-72
2020/12/22 12:07:36;;;;;;;2.40;1.48;;;13.50;99.90;;;;;;5023006;28;20195;-73
2020/12/22 12:10:04;;;;;;;2.22;1.40;;;13.60;99.90;;;;;;5024657;28;20034;-72
2020/12/22 12:12:33;;;;;;;2.35;1.30;;;13.60;99.90;;;;;;5055192;28;20033;-72
2020/12/22 12:15:01;;;;;;;2.58;1.55;;;13.60;99.90;;;;;;5024889;28;20048;-72
2020/12/22 12:17:26;;;;;;;3.85;1.80;;;13.60;99.90;;;;;;5025071;28;20030;-73
2020/12/22 12:19:52;;;;;;;4.85;2.45;;;13.60;99.90;;;;;;5055524;28;20556;-72
2020/12/22 12:22:22;;;;;;;3.45;1.80;;;13.60;99.90;;;;;;5025324;28;20080;-72
2020/12/22 12:24:48;;;;;;;2.88;1.58;;;13.60;99.90;;;;;;5025653;28;20033;-72
2020/12/22 12:27:13;;;;;;;4.50;1.60;;;13.60;99.90;;;;;;5024944;28;20030;-72
2020/12/22 12:29:39;;;;;;;3.05;1.60;;;13.70;99.90;;;;;;5027294;28;20141;-72
2020/12/22 12:32:05;;;;;;;3.38;1.52;;;13.70;99.90;;;;;;5025233;28;20029;-72
2020/12/22 12:34:30;;;;;;;2.67;1.40;;;13.70;99.90;;;;;;5026593;28;20854;-72
2020/12/22 12:36:56;;;;;;;2.58;1.30;;;13.70;99.90;;;;;;5024669;28;20419;-72
2020/12/22 12:39:22;;;;;;;3.10;1.30;;;13.80;99.90;;;;;;5058661;28;20034;-72
2020/12/22 12:41:49;;;;;;;1.65;1.30;;;13.80;99.90;;;;;;5024382;28;20068;-72
2020/12/22 12:44:15;;;;;;;3.28;1.20;;;13.80;99.90;;;;;;5055141;28;20025;-72
2020/12/22 12:46:41;;;;;;;1.75;1.10;;;13.90;99.90;;;;;;5056879;28;20042;-72